sensor_id;sensor_type;location;lat;lon;timestamp;P1;durP1;ratioP1;P2;durP2;ratioP2
8929;SDS011;4500;49.074;9.110;2023-04-28T00:01:52;2.37;;;2.23;;
8929;SDS011;4500;49.074;9.110;2023-04-28T00:04:21;0.90;;;0.90;;
8929;SDS011;4500;49.074;9.110;2023-04-28T00:06:49;0.73;;;0.73;;
8929;SDS011;4500;49.074;9.110;2023-04-28T00:09:18;0.90;;;0.90;;
8929;SDS011;4500;49.074;9.110;2023-04-28T00:11:45;0.70;;;0.70;;
8929;SDS011;4500;49.074;9.110;2023-04-28T00:14:13;0.60;;;0.60;;
8929;SDS011;4500;49.074;9.110;2023-04-28T00:16:41;0.90;;;0.90;;
8929;SDS011;4500;49.074;9.110;2023-04-28T00:19:09;1.97;;;1.87;;
8929;SDS011;4500;49.074;9.110;2023-04-28T00:21:36;2.80;;;2.70;;
8929;SDS011;4500;49.074;9.110;2023-04-28T00:24:03;2.70;;;2.60;;
8929;SDS011;4500;49.074;9.110;2023-04-28T00:26:31;3.27;;;3.10;;
8929;SDS011;4500;49.074;9.110;2023-04-28T00:28:59;2.87;;;2.77;;
8929;SDS011;4500;49.074;9.110;2023-04-28T00:31:26;2.10;;;2.00;;
8929;SDS011;4500;49.074;9.110;2023-04-28T00:33:54;0.97;;;0.97;;
8929;SDS011;4500;49.074;9.110;2023-04-28T00:36:21;0.97;;;0.97;;
8929;SDS011;4500;49.074;9.110;2023-04-28T00:38:49;0.60;;;0.60;;
8929;SDS011;4500;49.074;9.110;2023-04-28T00:41:17;0.67;;;0.67;;
8929;SDS011;4500;49.074;9.110;2023-04-28T00:43:47;1.00;;;1.00;;
8929;SDS011;4500;49.074;9.110;2023-04-28T00:46:20;0.70;;;0.70;;
8929;SDS011;4500;49.074;9.110;2023-04-28T00:48:50;0.80;;;0.80;;
8929;SDS011;4500;49.074;9.110;2023-04-28T00:51:18;0.60;;;0.60;;
8929;SDS011;4500;49.074;9.110;2023-04-28T00:53:47;1.53;;;1.43;;
8929;SDS011;4500;49.074;9.110;2023-04-28T00:56:17;0.97;;;0.97;;
8929;SDS011;4500;49.074;9.110;2023-04-28T00:58:45;0.60;;;0.60;;
8929;SDS011;4500;49.074;9.110;2023-04-28T01:01:12;0.70;;;0.70;;
8929;SDS011;4500;49.074;9.110;2023-04-28T01:03:40;1.27;;;1.27;;
8929;SDS011;4500;49.074;9.110;2023-04-28T01:06:08;2.80;;;2.70;;
8929;SDS011;4500;49.074;9.110;2023-04-28T01:08:36;5.23;;;4.93;;
8929;SDS011;4500;49.074;9.110;2023-04-28T01:11:05;2.20;;;2.10;;
8929;SDS011;4500;49.074;9.110;2023-04-28T01:13:32;2.73;;;2.63;;
8929;SDS011;4500;49.074;9.110;2023-04-28T01:16:00;3.13;;;3.03;;
8929;SDS011;4500;49.074;9.110;2023-04-28T01:18:27;1.63;;;1.53;;
8929;SDS011;4500;49.074;9.110;2023-04-28T01:20:54;1.33;;;1.30;;
8929;SDS011;4500;49.074;9.110;2023-04-28T01:23:22;1.10;;;1.10;;
8929;SDS011;4500;49.074;9.110;2023-04-28T01:25:49;0.63;;;0.63;;
8929;SDS011;4500;49.074;9.110;2023-04-28T01:28:16;0.97;;;0.97;;
8929;SDS011;4500;49.074;9.110;2023-04-28T01:30:44;0.80;;;0.80;;
8929;SDS011;4500;49.074;9.110;2023-04-28T01:33:11;1.00;;;1.00;;
8929;SDS011;4500;49.074;9.110;2023-04-28T01:35:38;2.40;;;2.30;;
8929;SDS011;4500;49.074;9.110;2023-04-28T01:38:06;2.73;;;2.63;;
8929;SDS011;4500;49.074;9.110;2023-04-28T01:40:33;2.60;;;2.50;;
8929;SDS011;4500;49.074;9.110;2023-04-28T01:43:00;2.70;;;2.60;;
8929;SDS011;4500;49.074;9.110;2023-04-28T01:45:27;2.23;;;2.13;;
8929;SDS011;4500;49.074;9.110;2023-04-28T01:47:55;1.90;;;1.80;;
8929;SDS011;4500;49.074;9.110;2023-04-28T01:50:22;1.73;;;1.67;;
8929;SDS011;4500;49.074;9.110;2023-04-28T01:52:50;0.80;;;0.80;;
8929;SDS011;4500;49.074;9.110;2023-04-28T01:55:17;0.90;;;0.90;;
8929;SDS011;4500;49.074;9.110;2023-04-28T01:57:45;0.70;;;0.70;;
8929;SDS011;4500;49.074;9.110;2023-04-28T02:00:12;0.80;;;0.80;;
8929;SDS011;4500;49.074;9.110;2023-04-28T02:02:40;1.03;;;1.03;;
8929;SDS011;4500;49.074;9.110;2023-04-28T02:05:07;2.80;;;2.70;;
8929;SDS011;4500;49.074;9.110;2023-04-28T02:07:34;2.60;;;2.50;;
8929;SDS011;4500;49.074;9.110;2023-04-28T02:10:02;2.70;;;2.60;;
8929;SDS011;4500;49.074;9.110;2023-04-28T02:12:30;3.23;;;3.13;;
8929;SDS011;4500;49.074;9.110;2023-04-28T02:14:57;1.97;;;1.87;;
8929;SDS011;4500;49.074;9.110;2023-04-28T02:17:24;1.43;;;1.40;;
8929;SDS011;4500;49.074;9.110;2023-04-28T02:19:55;0.63;;;0.63;;
8929;SDS011;4500;49.074;9.110;2023-04-28T02:22:22;1.20;;;1.17;;
8929;SDS011;4500;49.074;9.110;2023-04-28T02:24:50;0.70;;;0.70;;
8929;SDS011;4500;49.074;9.110;2023-04-28T02:27:18;0.90;;;0.90;;
8929;SDS011;4500;49.074;9.110;2023-04-28T02:29:46;1.63;;;1.53;;
8929;SDS011;4500;49.074;9.110;2023-04-28T02:32:14;1.87;;;1.73;;
8929;SDS011;4500;49.074;9.110;2023-04-28T02:34:42;0.80;;;0.80;;
8929;SDS011;4500;49.074;9.110;2023-04-28T02:37:09;1.47;;;1.47;;
8929;SDS011;4500;49.074;9.110;2023-04-28T02:39:36;2.60;;;2.50;;
8929;SDS011;4500;49.074;9.110;2023-04-28T02:42:04;3.03;;;2.93;;
8929;SDS011;4500;49.074;9.110;2023-04-28T02:44:31;4.30;;;4.10;;
8929;SDS011;4500;49.074;9.110;2023-04-28T02:46:58;2.97;;;2.87;;
8929;SDS011;4500;49.074;9.110;2023-04-28T02:49:27;3.10;;;3.00;;
8929;SDS011;4500;49.074;9.110;2023-04-28T02:51:55;1.10;;;1.10;;
8929;SDS011;4500;49.074;9.110;2023-04-28T02:54:22;1.77;;;1.70;;
8929;SDS011;4500;49.074;9.110;2023-04-28T02:56:56;2.87;;;2.77;;
8929;SDS011;4500;49.074;9.110;2023-04-28T02:59:24;1.13;;;1.10;;
8929;SDS011;4500;49.074;9.110;2023-04-28T03:01:52;1.10;;;1.07;;
8929;SDS011;4500;49.074;9.110;2023-04-28T03:04:20;0.70;;;0.70;;
8929;SDS011;4500;49.074;9.110;2023-04-28T03:06:48;0.90;;;0.90;;
8929;SDS011;4500;49.074;9.110;2023-04-28T03:09:16;1.03;;;0.93;;
8929;SDS011;4500;49.074;9.110;2023-04-28T03:11:44;0.70;;;0.70;;
8929;SDS011;4500;49.074;9.110;2023-04-28T03:14:11;0.70;;;0.70;;
8929;SDS011;4500;49.074;9.110;2023-04-28T03:16:39;2.23;;;2.13;;
8929;SDS011;4500;49.074;9.110;2023-04-28T03:19:06;2.90;;;2.80;;
8929;SDS011;4500;49.074;9.110;2023-04-28T03:21:34;2.60;;;2.50;;
8929;SDS011;4500;49.074;9.110;2023-04-28T03:24:01;3.17;;;3.07;;
8929;SDS011;4500;49.074;9.110;2023-04-28T03:26:31;2.77;;;2.67;;
8929;SDS011;4500;49.074;9.110;2023-04-28T03:28:58;2.00;;;1.90;;
8929;SDS011;4500;49.074;9.110;2023-04-28T03:31:25;2.23;;;2.13;;
8929;SDS011;4500;49.074;9.110;2023-04-28T03:33:53;1.27;;;1.23;;
8929;SDS011;4500;49.074;9.110;2023-04-28T03:36:20;0.60;;;0.60;;
8929;SDS011;4500;49.074;9.110;2023-04-28T03:38:48;0.70;;;0.70;;
8929;SDS011;4500;49.074;9.110;2023-04-28T03:41:16;0.60;;;0.60;;
8929;SDS011;4500;49.074;9.110;2023-04-28T03:43:44;0.70;;;0.70;;
8929;SDS011;4500;49.074;9.110;2023-04-28T03:46:11;0.90;;;0.90;;
8929;SDS011;4500;49.074;9.110;2023-04-28T03:48:39;2.03;;;1.93;;
8929;SDS011;4500;49.074;9.110;2023-04-28T03:51:06;2.70;;;2.60;;
8929;SDS011;4500;49.074;9.110;2023-04-28T03:53:34;2.60;;;2.50;;
8929;SDS011;4500;49.074;9.110;2023-04-28T03:56:01;2.70;;;2.60;;
8929;SDS011;4500;49.074;9.110;2023-04-28T03:58:28;2.70;;;2.60;;
8929;SDS011;4500;49.074;9.110;2023-04-28T04:00:56;3.43;;;3.27;;
8929;SDS011;4500;49.074;9.110;2023-04-28T04:03:23;1.63;;;1.57;;
8929;SDS011;4500;49.074;9.110;2023-04-28T04:05:53;2.30;;;2.07;;
8929;SDS011;4500;49.074;9.110;2023-04-28T04:08:21;0.70;;;0.70;;
8929;SDS011;4500;49.074;9.110;2023-04-28T04:10:48;0.80;;;0.80;;
8929;SDS011;4500;49.074;9.110;2023-04-28T04:13:17;0.80;;;0.80;;
8929;SDS011;4500;49.074;9.110;2023-04-28T04:15:46;0.90;;;0.90;;
8929;SDS011;4500;49.074;9.110;2023-04-28T04:18:17;0.60;;;0.60;;
8929;SDS011;4500;49.074;9.110;2023-04-28T04:20:46;0.70;;;0.70;;
8929;SDS011;4500;49.074;9.110;2023-04-28T04:23:15;0.70;;;0.70;;
8929;SDS011;4500;49.074;9.110;2023-04-28T04:25:42;0.70;;;0.70;;
8929;SDS011;4500;49.074;9.110;2023-04-28T04:28:10;1.47;;;1.47;;
8929;SDS011;4500;49.074;9.110;2023-04-28T04:30:37;3.53;;;3.33;;
8929;SDS011;4500;49.074;9.110;2023-04-28T04:33:04;3.10;;;3.00;;
8929;SDS011;4500;49.074;9.110;2023-04-28T04:35:32;2.97;;;2.87;;
8929;SDS011;4500;49.074;9.110;2023-04-28T04:38:00;3.10;;;3.00;;
8929;SDS011;4500;49.074;9.110;2023-04-28T04:40:28;2.03;;;1.93;;
8929;SDS011;4500;49.074;9.110;2023-04-28T04:42:55;1.67;;;1.60;;
8929;SDS011;4500;49.074;9.110;2023-04-28T04:45:22;1.10;;;1.10;;
8929;SDS011;4500;49.074;9.110;2023-04-28T04:47:51;0.60;;;0.60;;
8929;SDS011;4500;49.074;9.110;2023-04-28T04:50:18;0.80;;;0.80;;
8929;SDS011;4500;49.074;9.110;2023-04-28T04:52:49;0.80;;;0.80;;
8929;SDS011;4500;49.074;9.110;2023-04-28T04:55:18;0.80;;;0.80;;
8929;SDS011;4500;49.074;9.110;2023-04-28T04:57:45;0.60;;;0.60;;
8929;SDS011;4500;49.074;9.110;2023-04-28T05:00:13;0.80;;;0.80;;
8929;SDS011;4500;49.074;9.110;2023-04-28T05:02:42;0.70;;;0.70;;
8929;SDS011;4500;49.074;9.110;2023-04-28T05:05:10;1.77;;;1.77;;
8929;SDS011;4500;49.074;9.110;2023-04-28T05:07:46;0.73;;;0.73;;
8929;SDS011;4500;49.074;9.110;2023-04-28T05:10:14;0.77;;;0.77;;
8929;SDS011;4500;49.074;9.110;2023-04-28T05:12:41;1.00;;;1.00;;
8929;SDS011;4500;49.074;9.110;2023-04-28T05:15:13;0.80;;;0.80;;
8929;SDS011;4500;49.074;9.110;2023-04-28T05:17:41;1.10;;;1.10;;
8929;SDS011;4500;49.074;9.110;2023-04-28T05:20:08;2.50;;;2.40;;
8929;SDS011;4500;49.074;9.110;2023-04-28T05:22:38;2.83;;;2.73;;
8929;SDS011;4500;49.074;9.110;2023-04-28T05:25:05;3.23;;;3.13;;
8929;SDS011;4500;49.074;9.110;2023-04-28T05:27:33;2.80;;;2.70;;
8929;SDS011;4500;49.074;9.110;2023-04-28T05:30:03;2.40;;;2.30;;
8929;SDS011;4500;49.074;9.110;2023-04-28T05:32:33;2.40;;;2.30;;
8929;SDS011;4500;49.074;9.110;2023-04-28T05:35:02;2.60;;;2.50;;
8929;SDS011;4500;49.074;9.110;2023-04-28T05:37:29;3.00;;;2.90;;
8929;SDS011;4500;49.074;9.110;2023-04-28T05:39:56;2.80;;;2.70;;
8929;SDS011;4500;49.074;9.110;2023-04-28T05:42:24;1.47;;;1.40;;
8929;SDS011;4500;49.074;9.110;2023-04-28T05:44:51;0.73;;;0.73;;
8929;SDS011;4500;49.074;9.110;2023-04-28T05:47:18;0.60;;;0.60;;
8929;SDS011;4500;49.074;9.110;2023-04-28T05:49:46;0.67;;;0.67;;
8929;SDS011;4500;49.074;9.110;2023-04-28T05:52:13;0.70;;;0.70;;
8929;SDS011;4500;49.074;9.110;2023-04-28T05:54:41;1.07;;;1.07;;
8929;SDS011;4500;49.074;9.110;2023-04-28T05:57:08;2.43;;;2.33;;
8929;SDS011;4500;49.074;9.110;2023-04-28T05:59:35;2.83;;;2.73;;
8929;SDS011;4500;49.074;9.110;2023-04-28T06:02:03;2.20;;;2.10;;
8929;SDS011;4500;49.074;9.110;2023-04-28T06:04:30;3.17;;;3.07;;
8929;SDS011;4500;49.074;9.110;2023-04-28T06:06:58;1.53;;;1.53;;
8929;SDS011;4500;49.074;9.110;2023-04-28T06:09:25;1.87;;;1.77;;
8929;SDS011;4500;49.074;9.110;2023-04-28T06:11:52;1.00;;;0.97;;
8929;SDS011;4500;49.074;9.110;2023-04-28T06:14:21;0.70;;;0.70;;
8929;SDS011;4500;49.074;9.110;2023-04-28T06:16:49;0.70;;;0.70;;
8929;SDS011;4500;49.074;9.110;2023-04-28T06:19:18;0.77;;;0.77;;
8929;SDS011;4500;49.074;9.110;2023-04-28T06:21:45;0.50;;;0.50;;
8929;SDS011;4500;49.074;9.110;2023-04-28T06:24:15;0.60;;;0.60;;
8929;SDS011;4500;49.074;9.110;2023-04-28T06:26:43;1.43;;;1.33;;
8929;SDS011;4500;49.074;9.110;2023-04-28T06:29:11;0.90;;;0.90;;
8929;SDS011;4500;49.074;9.110;2023-04-28T06:31:38;2.50;;;2.40;;
8929;SDS011;4500;49.074;9.110;2023-04-28T06:34:05;2.40;;;2.30;;
8929;SDS011;4500;49.074;9.110;2023-04-28T06:36:33;2.60;;;2.50;;
8929;SDS011;4500;49.074;9.110;2023-04-28T06:39:00;2.17;;;2.07;;
8929;SDS011;4500;49.074;9.110;2023-04-28T06:41:28;1.97;;;1.87;;
8929;SDS011;4500;49.074;9.110;2023-04-28T06:43:56;1.27;;;1.27;;
8929;SDS011;4500;49.074;9.110;2023-04-28T06:46:23;1.17;;;1.13;;
8929;SDS011;4500;49.074;9.110;2023-04-28T06:48:52;0.70;;;0.70;;
8929;SDS011;4500;49.074;9.110;2023-04-28T06:51:20;0.50;;;0.50;;
8929;SDS011;4500;49.074;9.110;2023-04-28T06:53:47;0.70;;;0.70;;
8929;SDS011;4500;49.074;9.110;2023-04-28T06:56:18;0.70;;;0.70;;
8929;SDS011;4500;49.074;9.110;2023-04-28T06:58:47;0.90;;;0.90;;
8929;SDS011;4500;49.074;9.110;2023-04-28T07:01:15;0.70;;;0.70;;
8929;SDS011;4500;49.074;9.110;2023-04-28T07:03:43;0.80;;;0.80;;
8929;SDS011;4500;49.074;9.110;2023-04-28T07:06:11;1.10;;;1.10;;
8929;SDS011;4500;49.074;9.110;2023-04-28T07:08:40;2.20;;;2.10;;
8929;SDS011;4500;49.074;9.110;2023-04-28T07:11:07;2.30;;;2.20;;
8929;SDS011;4500;49.074;9.110;2023-04-28T07:13:35;2.43;;;2.33;;
8929;SDS011;4500;49.074;9.110;2023-04-28T07:16:02;3.23;;;3.13;;
8929;SDS011;4500;49.074;9.110;2023-04-28T07:18:30;3.00;;;2.90;;
8929;SDS011;4500;49.074;9.110;2023-04-28T07:20:57;1.50;;;1.50;;
8929;SDS011;4500;49.074;9.110;2023-04-28T07:23:25;0.87;;;0.87;;
8929;SDS011;4500;49.074;9.110;2023-04-28T07:25:53;1.20;;;1.17;;
8929;SDS011;4500;49.074;9.110;2023-04-28T07:28:20;0.70;;;0.70;;
8929;SDS011;4500;49.074;9.110;2023-04-28T07:30:48;0.77;;;0.77;;
8929;SDS011;4500;49.074;9.110;2023-04-28T07:33:17;1.90;;;1.80;;
8929;SDS011;4500;49.074;9.110;2023-04-28T07:35:44;0.80;;;0.80;;
8929;SDS011;4500;49.074;9.110;2023-04-28T07:38:12;0.70;;;0.70;;
8929;SDS011;4500;49.074;9.110;2023-04-28T07:40:41;3.73;;;2.80;;
8929;SDS011;4500;49.074;9.110;2023-04-28T07:43:09;1.53;;;1.53;;
8929;SDS011;4500;49.074;9.110;2023-04-28T07:45:40;2.80;;;2.70;;
8929;SDS011;4500;49.074;9.110;2023-04-28T07:48:11;0.90;;;0.90;;
8929;SDS011;4500;49.074;9.110;2023-04-28T07:50:39;2.27;;;2.17;;
8929;SDS011;4500;49.074;9.110;2023-04-28T07:53:06;2.67;;;2.57;;
8929;SDS011;4500;49.074;9.110;2023-04-28T07:55:34;2.80;;;2.70;;
8929;SDS011;4500;49.074;9.110;2023-04-28T07:58:02;3.47;;;3.33;;
8929;SDS011;4500;49.074;9.110;2023-04-28T08:00:29;2.57;;;2.47;;
8929;SDS011;4500;49.074;9.110;2023-04-28T08:02:57;2.40;;;2.30;;
8929;SDS011;4500;49.074;9.110;2023-04-28T08:05:25;1.23;;;1.20;;
8929;SDS011;4500;49.074;9.110;2023-04-28T08:07:53;1.27;;;1.27;;
8929;SDS011;4500;49.074;9.110;2023-04-28T08:10:21;0.90;;;0.90;;
8929;SDS011;4500;49.074;9.110;2023-04-28T08:12:48;1.03;;;1.03;;
8929;SDS011;4500;49.074;9.110;2023-04-28T08:15:17;0.70;;;0.70;;
8929;SDS011;4500;49.074;9.110;2023-04-28T08:17:46;0.87;;;0.87;;
8929;SDS011;4500;49.074;9.110;2023-04-28T08:20:14;0.80;;;0.80;;
8929;SDS011;4500;49.074;9.110;2023-04-28T08:22:48;0.90;;;0.90;;
8929;SDS011;4500;49.074;9.110;2023-04-28T08:25:17;0.70;;;0.70;;
8929;SDS011;4500;49.074;9.110;2023-04-28T08:27:44;1.00;;;1.00;;
8929;SDS011;4500;49.074;9.110;2023-04-28T08:30:11;1.00;;;1.00;;
8929;SDS011;4500;49.074;9.110;2023-04-28T08:32:39;2.07;;;1.97;;
8929;SDS011;4500;49.074;9.110;2023-04-28T08:35:06;10.90;;;4.67;;
8929;SDS011;4500;49.074;9.110;2023-04-28T08:37:34;2.30;;;2.20;;
8929;SDS011;4500;49.074;9.110;2023-04-28T08:40:01;3.67;;;3.47;;
8929;SDS011;4500;49.074;9.110;2023-04-28T08:42:35;2.77;;;2.67;;
8929;SDS011;4500;49.074;9.110;2023-04-28T08:45:03;2.60;;;2.50;;
8929;SDS011;4500;49.074;9.110;2023-04-28T08:47:35;2.67;;;2.57;;
8929;SDS011;4500;49.074;9.110;2023-04-28T08:50:04;2.60;;;2.50;;
8929;SDS011;4500;49.074;9.110;2023-04-28T08:52:33;2.97;;;2.87;;
8929;SDS011;4500;49.074;9.110;2023-04-28T08:55:05;2.70;;;2.60;;
8929;SDS011;4500;49.074;9.110;2023-04-28T08:57:34;2.73;;;2.63;;
8929;SDS011;4500;49.074;9.110;2023-04-28T09:00:06;2.40;;;2.30;;
8929;SDS011;4500;49.074;9.110;2023-04-28T09:02:34;3.57;;;3.37;;
8929;SDS011;4500;49.074;9.110;2023-04-28T09:05:05;2.07;;;1.97;;
8929;SDS011;4500;49.074;9.110;2023-04-28T09:07:36;2.37;;;2.27;;
8929;SDS011;4500;49.074;9.110;2023-04-28T09:12:44;1.07;;;1.07;;
8929;SDS011;4500;49.074;9.110;2023-04-28T09:15:24;0.70;;;0.70;;
8929;SDS011;4500;49.074;9.110;2023-04-28T09:18:05;3.13;;;3.03;;
8929;SDS011;4500;49.074;9.110;2023-04-28T09:20:34;2.00;;;1.90;;
8929;SDS011;4500;49.074;9.110;2023-04-28T09:23:19;3.47;;;3.33;;
8929;SDS011;4500;49.074;9.110;2023-04-28T09:28:25;0.90;;;0.90;;
8929;SDS011;4500;49.074;9.110;2023-04-28T09:30:52;1.10;;;1.10;;
8929;SDS011;4500;49.074;9.110;2023-04-28T09:33:22;1.03;;;1.03;;
8929;SDS011;4500;49.074;9.110;2023-04-28T09:35:49;0.80;;;0.80;;
8929;SDS011;4500;49.074;9.110;2023-04-28T09:38:19;0.60;;;0.60;;
8929;SDS011;4500;49.074;9.110;2023-04-28T09:40:57;2.63;;;2.50;;
8929;SDS011;4500;49.074;9.110;2023-04-28T09:43:33;2.23;;;2.13;;
8929;SDS011;4500;49.074;9.110;2023-04-28T09:46:01;2.20;;;2.10;;
8929;SDS011;4500;49.074;9.110;2023-04-28T09:48:31;2.40;;;2.30;;
8929;SDS011;4500;49.074;9.110;2023-04-28T09:51:01;2.30;;;2.20;;
8929;SDS011;4500;49.074;9.110;2023-04-28T09:53:32;1.93;;;1.83;;
8929;SDS011;4500;49.074;9.110;2023-04-28T09:56:01;2.70;;;2.60;;
8929;SDS011;4500;49.074;9.110;2023-04-28T09:58:30;2.50;;;2.40;;
8929;SDS011;4500;49.074;9.110;2023-04-28T10:01:00;1.87;;;1.77;;
8929;SDS011;4500;49.074;9.110;2023-04-28T10:03:29;1.97;;;1.87;;
8929;SDS011;4500;49.074;9.110;2023-04-28T10:05:57;0.83;;;0.83;;
8929;SDS011;4500;49.074;9.110;2023-04-28T10:08:26;0.83;;;0.83;;
8929;SDS011;4500;49.074;9.110;2023-04-28T10:10:53;1.07;;;1.03;;
8929;SDS011;4500;49.074;9.110;2023-04-28T10:13:22;0.50;;;0.50;;
8929;SDS011;4500;49.074;9.110;2023-04-28T10:15:50;1.07;;;1.07;;
8929;SDS011;4500;49.074;9.110;2023-04-28T10:18:24;1.37;;;1.30;;
8929;SDS011;4500;49.074;9.110;2023-04-28T10:20:52;0.70;;;0.70;;
8929;SDS011;4500;49.074;9.110;2023-04-28T10:25:57;1.80;;;1.70;;
8929;SDS011;4500;49.074;9.110;2023-04-28T10:28:25;0.90;;;0.90;;
8929;SDS011;4500;49.074;9.110;2023-04-28T10:31:27;1.03;;;1.00;;
8929;SDS011;4500;49.074;9.110;2023-04-28T10:33:49;0.80;;;0.80;;
8929;SDS011;4500;49.074;9.110;2023-04-28T10:36:45;0.50;;;0.50;;
8929;SDS011;4500;49.074;9.110;2023-04-28T10:39:18;0.93;;;0.93;;
8929;SDS011;4500;49.074;9.110;2023-04-28T10:41:47;0.77;;;0.77;;
8929;SDS011;4500;49.074;9.110;2023-04-28T10:58:45;2.73;;;2.63;;
8929;SDS011;4500;49.074;9.110;2023-04-28T11:00:53;0.93;;;0.93;;
8929;SDS011;4500;49.074;9.110;2023-04-28T11:03:38;0.60;;;0.60;;
8929;SDS011;4500;49.074;9.110;2023-04-28T11:06:19;1.67;;;1.67;;
8929;SDS011;4500;49.074;9.110;2023-04-28T11:08:59;1.93;;;1.83;;
8929;SDS011;4500;49.074;9.110;2023-04-28T11:17:01;3.23;;;3.13;;
8929;SDS011;4500;49.074;9.110;2023-04-28T11:19:34;2.43;;;2.33;;
8929;SDS011;4500;49.074;9.110;2023-04-28T11:22:15;2.03;;;1.93;;
8929;SDS011;4500;49.074;9.110;2023-04-28T11:24:58;0.70;;;0.70;;
8929;SDS011;4500;49.074;9.110;2023-04-28T11:27:31;2.57;;;1.87;;
8929;SDS011;4500;49.074;9.110;2023-04-28T11:29:59;1.97;;;1.87;;
8929;SDS011;4500;49.074;9.110;2023-04-28T11:32:28;2.10;;;2.00;;
8929;SDS011;4500;49.074;9.110;2023-04-28T11:34:57;2.67;;;2.57;;
8929;SDS011;4500;49.074;9.110;2023-04-28T11:37:24;1.07;;;1.03;;
8929;SDS011;4500;49.074;9.110;2023-04-28T11:39:52;0.73;;;0.73;;
8929;SDS011;4500;49.074;9.110;2023-04-28T11:42:20;0.67;;;0.67;;
8929;SDS011;4500;49.074;9.110;2023-04-28T11:44:52;0.80;;;0.80;;
8929;SDS011;4500;49.074;9.110;2023-04-28T11:47:30;0.60;;;0.60;;
8929;SDS011;4500;49.074;9.110;2023-04-28T11:49:58;1.30;;;1.30;;
8929;SDS011;4500;49.074;9.110;2023-04-28T11:52:27;1.33;;;1.33;;
8929;SDS011;4500;49.074;9.110;2023-04-28T11:54:55;0.97;;;0.97;;
8929;SDS011;4500;49.074;9.110;2023-04-28T11:57:25;0.80;;;0.80;;
8929;SDS011;4500;49.074;9.110;2023-04-28T11:59:53;1.13;;;1.10;;
8929;SDS011;4500;49.074;9.110;2023-04-28T12:02:45;0.60;;;0.60;;
8929;SDS011;4500;49.074;9.110;2023-04-28T12:05:13;0.80;;;0.80;;
8929;SDS011;4500;49.074;9.110;2023-04-28T12:07:41;0.93;;;0.93;;
8929;SDS011;4500;49.074;9.110;2023-04-28T12:10:10;1.83;;;1.73;;
8929;SDS011;4500;49.074;9.110;2023-04-28T12:12:39;1.53;;;1.53;;
8929;SDS011;4500;49.074;9.110;2023-04-28T12:15:18;0.90;;;0.90;;
8929;SDS011;4500;49.074;9.110;2023-04-28T12:17:48;0.60;;;0.60;;
8929;SDS011;4500;49.074;9.110;2023-04-28T12:20:35;0.60;;;0.60;;
8929;SDS011;4500;49.074;9.110;2023-04-28T12:23:04;2.00;;;1.90;;
8929;SDS011;4500;49.074;9.110;2023-04-28T12:25:41;1.87;;;1.77;;
8929;SDS011;4500;49.074;9.110;2023-04-28T12:28:10;1.47;;;1.47;;
8929;SDS011;4500;49.074;9.110;2023-04-28T12:30:37;1.83;;;1.73;;
8929;SDS011;4500;49.074;9.110;2023-04-28T12:33:23;1.80;;;1.70;;
8929;SDS011;4500;49.074;9.110;2023-04-28T12:35:52;0.60;;;0.60;;
8929;SDS011;4500;49.074;9.110;2023-04-28T12:38:21;0.57;;;0.50;;
8929;SDS011;4500;49.074;9.110;2023-04-28T12:40:48;0.80;;;0.80;;
8929;SDS011;4500;49.074;9.110;2023-04-28T12:43:16;0.63;;;0.63;;
8929;SDS011;4500;49.074;9.110;2023-04-28T12:45:44;0.50;;;0.50;;
8929;SDS011;4500;49.074;9.110;2023-04-28T12:48:11;0.80;;;0.80;;
8929;SDS011;4500;49.074;9.110;2023-04-28T12:50:38;1.73;;;1.63;;
8929;SDS011;4500;49.074;9.110;2023-04-28T12:53:06;2.00;;;1.90;;
8929;SDS011;4500;49.074;9.110;2023-04-28T12:55:33;2.03;;;1.93;;
8929;SDS011;4500;49.074;9.110;2023-04-28T12:58:00;2.00;;;1.90;;
8929;SDS011;4500;49.074;9.110;2023-04-28T13:00:27;1.10;;;1.10;;
8929;SDS011;4500;49.074;9.110;2023-04-28T13:02:55;1.10;;;1.07;;
8929;SDS011;4500;49.074;9.110;2023-04-28T13:05:25;1.10;;;1.07;;
8929;SDS011;4500;49.074;9.110;2023-04-28T13:07:52;1.00;;;1.00;;
8929;SDS011;4500;49.074;9.110;2023-04-28T13:10:20;0.60;;;0.60;;
8929;SDS011;4500;49.074;9.110;2023-04-28T13:12:49;0.60;;;0.60;;
8929;SDS011;4500;49.074;9.110;2023-04-28T13:15:16;0.50;;;0.50;;
8929;SDS011;4500;49.074;9.110;2023-04-28T13:17:43;0.50;;;0.50;;
8929;SDS011;4500;49.074;9.110;2023-04-28T13:20:12;1.27;;;1.27;;
8929;SDS011;4500;49.074;9.110;2023-04-28T13:22:40;1.20;;;1.20;;
8929;SDS011;4500;49.074;9.110;2023-04-28T13:25:08;1.77;;;1.67;;
8929;SDS011;4500;49.074;9.110;2023-04-28T13:27:35;1.57;;;1.57;;
8929;SDS011;4500;49.074;9.110;2023-04-28T13:30:04;1.90;;;1.80;;
8929;SDS011;4500;49.074;9.110;2023-04-28T13:32:32;2.03;;;1.93;;
8929;SDS011;4500;49.074;9.110;2023-04-28T13:34:59;2.00;;;1.90;;
8929;SDS011;4500;49.074;9.110;2023-04-28T13:37:26;1.23;;;1.23;;
8929;SDS011;4500;49.074;9.110;2023-04-28T13:39:54;0.90;;;0.90;;
8929;SDS011;4500;49.074;9.110;2023-04-28T13:42:21;0.60;;;0.60;;
8929;SDS011;4500;49.074;9.110;2023-04-28T13:44:49;0.60;;;0.60;;
8929;SDS011;4500;49.074;9.110;2023-04-28T13:47:17;0.60;;;0.60;;
8929;SDS011;4500;49.074;9.110;2023-04-28T13:49:44;0.60;;;0.60;;
8929;SDS011;4500;49.074;9.110;2023-04-28T13:52:12;0.90;;;0.90;;
8929;SDS011;4500;49.074;9.110;2023-04-28T13:54:40;1.33;;;1.33;;
8929;SDS011;4500;49.074;9.110;2023-04-28T13:57:07;1.30;;;1.30;;
8929;SDS011;4500;49.074;9.110;2023-04-28T13:59:35;1.60;;;1.53;;
8929;SDS011;4500;49.074;9.110;2023-04-28T14:02:02;2.20;;;2.10;;
8929;SDS011;4500;49.074;9.110;2023-04-28T14:04:30;1.50;;;1.50;;
8929;SDS011;4500;49.074;9.110;2023-04-28T14:06:57;1.30;;;1.30;;
8929;SDS011;4500;49.074;9.110;2023-04-28T14:09:25;0.97;;;0.93;;
8929;SDS011;4500;49.074;9.110;2023-04-28T14:11:52;0.80;;;0.80;;
8929;SDS011;4500;49.074;9.110;2023-04-28T14:14:22;0.60;;;0.60;;
8929;SDS011;4500;49.074;9.110;2023-04-28T14:16:49;0.60;;;0.60;;
8929;SDS011;4500;49.074;9.110;2023-04-28T14:19:17;0.53;;;0.53;;
8929;SDS011;4500;49.074;9.110;2023-04-28T14:21:45;0.50;;;0.50;;
8929;SDS011;4500;49.074;9.110;2023-04-28T14:24:13;0.60;;;0.60;;
8929;SDS011;4500;49.074;9.110;2023-04-28T14:26:40;1.03;;;1.03;;
8929;SDS011;4500;49.074;9.110;2023-04-28T14:29:09;1.43;;;1.43;;
8929;SDS011;4500;49.074;9.110;2023-04-28T14:31:36;1.63;;;1.53;;
8929;SDS011;4500;49.074;9.110;2023-04-28T14:34:04;1.27;;;1.27;;
8929;SDS011;4500;49.074;9.110;2023-04-28T14:36:32;2.10;;;2.00;;
8929;SDS011;4500;49.074;9.110;2023-04-28T14:39:00;1.53;;;1.53;;
8929;SDS011;4500;49.074;9.110;2023-04-28T14:41:27;1.20;;;1.20;;
8929;SDS011;4500;49.074;9.110;2023-04-28T14:43:54;0.90;;;0.90;;
8929;SDS011;4500;49.074;9.110;2023-04-28T14:46:22;0.50;;;0.50;;
8929;SDS011;4500;49.074;9.110;2023-04-28T14:48:50;0.50;;;0.50;;
8929;SDS011;4500;49.074;9.110;2023-04-28T14:51:22;0.60;;;0.60;;
8929;SDS011;4500;49.074;9.110;2023-04-28T14:53:51;0.60;;;0.60;;
8929;SDS011;4500;49.074;9.110;2023-04-28T14:56:19;0.60;;;0.50;;
8929;SDS011;4500;49.074;9.110;2023-04-28T14:58:46;0.60;;;0.60;;
8929;SDS011;4500;49.074;9.110;2023-04-28T15:01:14;0.50;;;0.50;;
8929;SDS011;4500;49.074;9.110;2023-04-28T15:03:42;0.90;;;0.90;;
8929;SDS011;4500;49.074;9.110;2023-04-28T15:06:10;1.27;;;1.27;;
8929;SDS011;4500;49.074;9.110;2023-04-28T15:08:37;1.43;;;1.43;;
8929;SDS011;4500;49.074;9.110;2023-04-28T15:11:06;1.90;;;1.80;;
8929;SDS011;4500;49.074;9.110;2023-04-28T15:13:33;1.37;;;1.37;;
8929;SDS011;4500;49.074;9.110;2023-04-28T15:16:01;1.93;;;1.83;;
8929;SDS011;4500;49.074;9.110;2023-04-28T15:18:29;1.03;;;1.03;;
8929;SDS011;4500;49.074;9.110;2023-04-28T15:20:56;1.33;;;1.30;;
8929;SDS011;4500;49.074;9.110;2023-04-28T15:23:24;0.80;;;0.80;;
8929;SDS011;4500;49.074;9.110;2023-04-28T15:25:51;0.50;;;0.50;;
8929;SDS011;4500;49.074;9.110;2023-04-28T15:28:19;0.60;;;0.60;;
8929;SDS011;4500;49.074;9.110;2023-04-28T15:30:47;0.50;;;0.50;;
8929;SDS011;4500;49.074;9.110;2023-04-28T15:33:21;0.60;;;0.60;;
8929;SDS011;4500;49.074;9.110;2023-04-28T15:35:59;0.80;;;0.80;;
8929;SDS011;4500;49.074;9.110;2023-04-28T15:38:34;1.20;;;1.20;;
8929;SDS011;4500;49.074;9.110;2023-04-28T15:41:11;1.03;;;1.03;;
8929;SDS011;4500;49.074;9.110;2023-04-28T15:43:40;1.10;;;1.10;;
8929;SDS011;4500;49.074;9.110;2023-04-28T15:46:10;1.07;;;1.07;;
8929;SDS011;4500;49.074;9.110;2023-04-28T15:48:40;1.37;;;1.37;;
8929;SDS011;4500;49.074;9.110;2023-04-28T15:51:08;1.33;;;1.33;;
8929;SDS011;4500;49.074;9.110;2023-04-28T15:53:36;1.27;;;1.27;;